sensor_id;sensor_type;location;lat;lon;timestamp;P1;durP1;ratioP1;P2;durP2;ratioP2
19384;SDS011;9828;54.122;17.974;2024-02-23T00:02:08;19.07;;;14.27;;
19384;SDS011;9828;54.122;17.974;2024-02-23T00:07:30;20.07;;;13.13;;
19384;SDS011;9828;54.122;17.974;2024-02-23T00:12:51;23.33;;;13.43;;
19384;SDS011;9828;54.122;17.974;2024-02-23T00:18:13;19.33;;;13.50;;
19384;SDS011;9828;54.122;17.974;2024-02-23T00:23:36;22.17;;;14.33;;
19384;SDS011;9828;54.122;17.974;2024-02-23T00:28:57;22.70;;;15.30;;
19384;SDS011;9828;54.122;17.974;2024-02-23T00:34:19;23.83;;;15.17;;
19384;SDS011;9828;54.122;17.974;2024-02-23T00:39:40;20.47;;;15.07;;
19384;SDS011;9828;54.122;17.974;2024-02-23T00:45:02;22.60;;;15.70;;
19384;SDS011;9828;54.122;17.974;2024-02-23T00:50:24;20.73;;;14.43;;
19384;SDS011;9828;54.122;17.974;2024-02-23T00:55:46;25.97;;;15.07;;
19384;SDS011;9828;54.122;17.974;2024-02-23T01:01:10;22.50;;;14.47;;
19384;SDS011;9828;54.122;17.974;2024-02-23T01:06:32;23.97;;;15.77;;
19384;SDS011;9828;54.122;17.974;2024-02-23T01:11:53;21.43;;;15.30;;
19384;SDS011;9828;54.122;17.974;2024-02-23T01:17:15;24.73;;;14.77;;
19384;SDS011;9828;54.122;17.974;2024-02-23T01:22:36;26.00;;;14.67;;
19384;SDS011;9828;54.122;17.974;2024-02-23T01:27:57;21.53;;;14.13;;
19384;SDS011;9828;54.122;17.974;2024-02-23T01:33:21;19.90;;;15.73;;
19384;SDS011;9828;54.122;17.974;2024-02-23T01:38:42;21.63;;;14.40;;
19384;SDS011;9828;54.122;17.974;2024-02-23T01:44:04;19.00;;;12.77;;
19384;SDS011;9828;54.122;17.974;2024-02-23T01:49:27;18.40;;;12.60;;
19384;SDS011;9828;54.122;17.974;2024-02-23T01:54:53;17.27;;;12.33;;
19384;SDS011;9828;54.122;17.974;2024-02-23T02:00:17;20.47;;;13.57;;
19384;SDS011;9828;54.122;17.974;2024-02-23T02:05:45;19.97;;;13.77;;
19384;SDS011;9828;54.122;17.974;2024-02-23T02:11:07;18.90;;;12.70;;
19384;SDS011;9828;54.122;17.974;2024-02-23T02:16:28;17.57;;;11.63;;
19384;SDS011;9828;54.122;17.974;2024-02-23T02:21:49;18.27;;;12.83;;
19384;SDS011;9828;54.122;17.974;2024-02-23T02:27:11;19.23;;;12.47;;
19384;SDS011;9828;54.122;17.974;2024-02-23T02:32:32;17.63;;;12.20;;
19384;SDS011;9828;54.122;17.974;2024-02-23T02:37:55;14.90;;;11.10;;
19384;SDS011;9828;54.122;17.974;2024-02-23T02:43:16;14.40;;;10.57;;
19384;SDS011;9828;54.122;17.974;2024-02-23T02:48:40;16.27;;;11.03;;
19384;SDS011;9828;54.122;17.974;2024-02-23T02:54:04;15.50;;;11.60;;
19384;SDS011;9828;54.122;17.974;2024-02-23T02:59:25;15.37;;;11.20;;
19384;SDS011;9828;54.122;17.974;2024-02-23T03:04:49;15.90;;;11.27;;
19384;SDS011;9828;54.122;17.974;2024-02-23T03:10:12;16.33;;;11.17;;
19384;SDS011;9828;54.122;17.974;2024-02-23T03:15:33;15.37;;;10.87;;
19384;SDS011;9828;54.122;17.974;2024-02-23T03:20:57;14.47;;;10.63;;
19384;SDS011;9828;54.122;17.974;2024-02-23T03:26:18;13.47;;;9.60;;
19384;SDS011;9828;54.122;17.974;2024-02-23T03:31:40;13.63;;;9.20;;
19384;SDS011;9828;54.122;17.974;2024-02-23T03:37:04;13.83;;;9.00;;
19384;SDS011;9828;54.122;17.974;2024-02-23T03:42:27;12.73;;;9.57;;
19384;SDS011;9828;54.122;17.974;2024-02-23T03:47:51;12.10;;;9.97;;
19384;SDS011;9828;54.122;17.974;2024-02-23T03:53:13;11.50;;;8.70;;
19384;SDS011;9828;54.122;17.974;2024-02-23T03:58:35;15.60;;;11.60;;
19384;SDS011;9828;54.122;17.974;2024-02-23T04:03:57;12.93;;;10.23;;
19384;SDS011;9828;54.122;17.974;2024-02-23T04:09:19;12.10;;;8.80;;
19384;SDS011;9828;54.122;17.974;2024-02-23T04:14:43;14.13;;;9.80;;
19384;SDS011;9828;54.122;17.974;2024-02-23T04:20:06;11.60;;;9.20;;
19384;SDS011;9828;54.122;17.974;2024-02-23T04:25:28;10.13;;;7.67;;
19384;SDS011;9828;54.122;17.974;2024-02-23T04:30:50;11.00;;;8.30;;
19384;SDS011;9828;54.122;17.974;2024-02-23T04:36:11;11.37;;;8.53;;
19384;SDS011;9828;54.122;17.974;2024-02-23T04:41:33;11.73;;;8.77;;
19384;SDS011;9828;54.122;17.974;2024-02-23T04:46:55;17.63;;;12.00;;
19384;SDS011;9828;54.122;17.974;2024-02-23T04:52:16;13.13;;;9.67;;
19384;SDS011;9828;54.122;17.974;2024-02-23T04:57:37;11.80;;;9.00;;
19384;SDS011;9828;54.122;17.974;2024-02-23T05:02:59;16.97;;;11.83;;
19384;SDS011;9828;54.122;17.974;2024-02-23T05:08:23;68.90;;;27.53;;
19384;SDS011;9828;54.122;17.974;2024-02-23T05:13:45;28.57;;;16.20;;
19384;SDS011;9828;54.122;17.974;2024-02-23T05:19:06;12.67;;;9.80;;
19384;SDS011;9828;54.122;17.974;2024-02-23T05:24:27;13.27;;;9.03;;
19384;SDS011;9828;54.122;17.974;2024-02-23T05:29:49;41.83;;;13.53;;
19384;SDS011;9828;54.122;17.974;2024-02-23T05:35:10;48.57;;;13.50;;
19384;SDS011;9828;54.122;17.974;2024-02-23T05:40:32;28.97;;;8.93;;
19384;SDS011;9828;54.122;17.974;2024-02-23T05:45:53;128.77;;;31.77;;
19384;SDS011;9828;54.122;17.974;2024-02-23T05:51:17;85.50;;;34.37;;
19384;SDS011;9828;54.122;17.974;2024-02-23T05:56:41;16.00;;;9.97;;
19384;SDS011;9828;54.122;17.974;2024-02-23T06:02:08;16.73;;;8.60;;
19384;SDS011;9828;54.122;17.974;2024-02-23T06:07:33;9.53;;;6.13;;
19384;SDS011;9828;54.122;17.974;2024-02-23T06:12:55;13.67;;;6.83;;
19384;SDS011;9828;54.122;17.974;2024-02-23T06:18:17;9.53;;;5.37;;
19384;SDS011;9828;54.122;17.974;2024-02-23T06:23:38;7.10;;;5.17;;
19384;SDS011;9828;54.122;17.974;2024-02-23T06:29:00;10.40;;;6.13;;
19384;SDS011;9828;54.122;17.974;2024-02-23T06:34:22;10.73;;;7.17;;
19384;SDS011;9828;54.122;17.974;2024-02-23T06:39:44;7.73;;;6.13;;
19384;SDS011;9828;54.122;17.974;2024-02-23T06:45:10;13.77;;;9.33;;
19384;SDS011;9828;54.122;17.974;2024-02-23T06:50:31;11.97;;;8.60;;
19384;SDS011;9828;54.122;17.974;2024-02-23T06:55:53;19.00;;;9.67;;
19384;SDS011;9828;54.122;17.974;2024-02-23T07:01:14;8.70;;;5.80;;
19384;SDS011;9828;54.122;17.974;2024-02-23T07:06:36;4.33;;;3.37;;
19384;SDS011;9828;54.122;17.974;2024-02-23T07:11:58;3.53;;;2.87;;
19384;SDS011;9828;54.122;17.974;2024-02-23T07:17:20;7.50;;;4.33;;
19384;SDS011;9828;54.122;17.974;2024-02-23T07:22:45;5.00;;;2.83;;
19384;SDS011;9828;54.122;17.974;2024-02-23T07:28:08;6.17;;;2.97;;
19384;SDS011;9828;54.122;17.974;2024-02-23T07:33:32;4.60;;;3.00;;
19384;SDS011;9828;54.122;17.974;2024-02-23T07:38:53;5.93;;;2.40;;
19384;SDS011;9828;54.122;17.974;2024-02-23T07:44:15;3.00;;;1.30;;
19384;SDS011;9828;54.122;17.974;2024-02-23T07:49:36;1.40;;;1.10;;
19384;SDS011;9828;54.122;17.974;2024-02-23T07:55:00;2.47;;;1.20;;
19384;SDS011;9828;54.122;17.974;2024-02-23T08:00:23;11.53;;;2.70;;
19384;SDS011;9828;54.122;17.974;2024-02-23T08:05:48;1.03;;;0.77;;
19384;SDS011;9828;54.122;17.974;2024-02-23T08:11:10;2.93;;;1.80;;
19384;SDS011;9828;54.122;17.974;2024-02-23T08:16:32;5.53;;;2.33;;
19384;SDS011;9828;54.122;17.974;2024-02-23T08:21:56;6.57;;;2.63;;
19384;SDS011;9828;54.122;17.974;2024-02-23T08:27:18;5.37;;;1.40;;
19384;SDS011;9828;54.122;17.974;2024-02-23T08:32:40;5.57;;;1.33;;
19384;SDS011;9828;54.122;17.974;2024-02-23T08:38:01;4.87;;;1.30;;
19384;SDS011;9828;54.122;17.974;2024-02-23T08:43:23;1.83;;;0.90;;
19384;SDS011;9828;54.122;17.974;2024-02-23T08:48:44;6.33;;;2.57;;
19384;SDS011;9828;54.122;17.974;2024-02-23T08:54:07;1.80;;;0.87;;
19384;SDS011;9828;54.122;17.974;2024-02-23T08:59:28;3.20;;;1.07;;
19384;SDS011;9828;54.122;17.974;2024-02-23T09:04:49;1.77;;;0.50;;
19384;SDS011;9828;54.122;17.974;2024-02-23T09:22:11;19.87;;;3.67;;
19384;SDS011;9828;54.122;17.974;2024-02-23T09:27:32;34.77;;;4.20;;
19384;SDS011;9828;54.122;17.974;2024-02-23T09:32:57;6.77;;;1.20;;
19384;SDS011;9828;54.122;17.974;2024-02-23T09:38:18;1.83;;;0.80;;
19384;SDS011;9828;54.122;17.974;2024-02-23T09:43:40;9.00;;;1.30;;
19384;SDS011;9828;54.122;17.974;2024-02-23T09:49:04;3.23;;;1.33;;
19384;SDS011;9828;54.122;17.974;2024-02-23T09:54:28;1.33;;;0.60;;
19384;SDS011;9828;54.122;17.974;2024-02-23T09:59:49;3.17;;;0.50;;
19384;SDS011;9828;54.122;17.974;2024-02-23T10:05:12;6.13;;;2.80;;
19384;SDS011;9828;54.122;17.974;2024-02-23T10:10:37;8.13;;;4.30;;
19384;SDS011;9828;54.122;17.974;2024-02-23T10:15:59;6.30;;;2.07;;
19384;SDS011;9828;54.122;17.974;2024-02-23T10:21:24;3.57;;;1.37;;
19384;SDS011;9828;54.122;17.974;2024-02-23T10:26:46;8.17;;;4.33;;
19384;SDS011;9828;54.122;17.974;2024-02-23T10:32:08;6.63;;;3.80;;
19384;SDS011;9828;54.122;17.974;2024-02-23T10:37:35;2.10;;;1.17;;
19384;SDS011;9828;54.122;17.974;2024-02-23T10:42:57;3.17;;;1.50;;
19384;SDS011;9828;54.122;17.974;2024-02-23T10:48:23;3.67;;;1.63;;
19384;SDS011;9828;54.122;17.974;2024-02-23T10:53:45;2.73;;;1.30;;
19384;SDS011;9828;54.122;17.974;2024-02-23T10:59:09;8.43;;;3.50;;
19384;SDS011;9828;54.122;17.974;2024-02-23T11:04:33;3.57;;;1.27;;
19384;SDS011;9828;54.122;17.974;2024-02-23T11:09:59;1.70;;;1.00;;
19384;SDS011;9828;54.122;17.974;2024-02-23T11:15:27;5.07;;;1.20;;
19384;SDS011;9828;54.122;17.974;2024-02-23T11:20:53;2.60;;;1.60;;
19384;SDS011;9828;54.122;17.974;2024-02-23T11:26:17;1.57;;;1.00;;
19384;SDS011;9828;54.122;17.974;2024-02-23T11:31:43;4.47;;;2.23;;
19384;SDS011;9828;54.122;17.974;2024-02-23T11:37:09;7.70;;;1.83;;
19384;SDS011;9828;54.122;17.974;2024-02-23T11:42:30;3.20;;;1.60;;
19384;SDS011;9828;54.122;17.974;2024-02-23T11:47:53;4.50;;;2.30;;
19384;SDS011;9828;54.122;17.974;2024-02-23T11:53:15;3.57;;;1.63;;
19384;SDS011;9828;54.122;17.974;2024-02-23T11:58:37;5.03;;;1.90;;
19384;SDS011;9828;54.122;17.974;2024-02-23T12:03:59;3.87;;;1.97;;
19384;SDS011;9828;54.122;17.974;2024-02-23T12:09:21;3.20;;;1.53;;
19384;SDS011;9828;54.122;17.974;2024-02-23T12:14:42;1.53;;;0.90;;
19384;SDS011;9828;54.122;17.974;2024-02-23T12:20:04;3.43;;;1.13;;
19384;SDS011;9828;54.122;17.974;2024-02-23T12:25:28;8.97;;;3.57;;
19384;SDS011;9828;54.122;17.974;2024-02-23T12:30:59;3.67;;;1.90;;
19384;SDS011;9828;54.122;17.974;2024-02-23T12:36:21;8.03;;;2.67;;
19384;SDS011;9828;54.122;17.974;2024-02-23T12:41:44;9.00;;;4.40;;
19384;SDS011;9828;54.122;17.974;2024-02-23T12:47:07;7.43;;;4.40;;
19384;SDS011;9828;54.122;17.974;2024-02-23T12:52:29;6.87;;;3.30;;
19384;SDS011;9828;54.122;17.974;2024-02-23T12:57:50;5.67;;;3.23;;
19384;SDS011;9828;54.122;17.974;2024-02-23T13:03:12;5.47;;;2.03;;
19384;SDS011;9828;54.122;17.974;2024-02-23T13:08:33;4.43;;;2.40;;
19384;SDS011;9828;54.122;17.974;2024-02-23T13:13:54;4.97;;;2.83;;
19384;SDS011;9828;54.122;17.974;2024-02-23T13:19:16;4.30;;;2.40;;
19384;SDS011;9828;54.122;17.974;2024-02-23T13:24:37;2.73;;;1.70;;
19384;SDS011;9828;54.122;17.974;2024-02-23T13:30:01;8.40;;;3.13;;
19384;SDS011;9828;54.122;17.974;2024-02-23T13:35:25;5.73;;;2.90;;
19384;SDS011;9828;54.122;17.974;2024-02-23T13:40:46;6.73;;;3.10;;
19384;SDS011;9828;54.122;17.974;2024-02-23T13:46:09;4.33;;;1.93;;
19384;SDS011;9828;54.122;17.974;2024-02-23T13:51:31;11.60;;;8.60;;
19384;SDS011;9828;54.122;17.974;2024-02-23T13:56:53;4.23;;;2.40;;
19384;SDS011;9828;54.122;17.974;2024-02-23T14:02:14;20.83;;;8.73;;
19384;SDS011;9828;54.122;17.974;2024-02-23T14:07:36;15.90;;;8.20;;
19384;SDS011;9828;54.122;17.974;2024-02-23T14:12:57;15.60;;;6.53;;
19384;SDS011;9828;54.122;17.974;2024-02-23T14:18:18;12.30;;;5.57;;
19384;SDS011;9828;54.122;17.974;2024-02-23T14:23:40;25.23;;;8.93;;
19384;SDS011;9828;54.122;17.974;2024-02-23T14:29:01;15.63;;;5.77;;
19384;SDS011;9828;54.122;17.974;2024-02-23T14:34:23;8.90;;;4.63;;
19384;SDS011;9828;54.122;17.974;2024-02-23T14:39:44;7.43;;;3.70;;
19384;SDS011;9828;54.122;17.974;2024-02-23T14:45:07;7.47;;;4.53;;
19384;SDS011;9828;54.122;17.974;2024-02-23T14:50:30;12.30;;;6.77;;
19384;SDS011;9828;54.122;17.974;2024-02-23T14:55:51;67.87;;;26.33;;
19384;SDS011;9828;54.122;17.974;2024-02-23T15:01:13;57.07;;;23.03;;
19384;SDS011;9828;54.122;17.974;2024-02-23T15:06:34;79.60;;;37.70;;
19384;SDS011;9828;54.122;17.974;2024-02-23T15:11:59;82.67;;;38.87;;
19384;SDS011;9828;54.122;17.974;2024-02-23T15:17:20;55.43;;;26.80;;
19384;SDS011;9828;54.122;17.974;2024-02-23T15:22:41;52.90;;;24.27;;
19384;SDS011;9828;54.122;17.974;2024-02-23T15:28:03;114.27;;;47.43;;
19384;SDS011;9828;54.122;17.974;2024-02-23T15:33:25;94.03;;;42.50;;
19384;SDS011;9828;54.122;17.974;2024-02-23T15:38:46;87.40;;;37.37;;
19384;SDS011;9828;54.122;17.974;2024-02-23T15:44:08;68.27;;;31.03;;
19384;SDS011;9828;54.122;17.974;2024-02-23T15:49:29;77.50;;;33.40;;
19384;SDS011;9828;54.122;17.974;2024-02-23T15:54:54;175.97;;;65.57;;
19384;SDS011;9828;54.122;17.974;2024-02-23T16:00:17;173.40;;;71.57;;
19384;SDS011;9828;54.122;17.974;2024-02-23T16:05:39;79.33;;;39.83;;
19384;SDS011;9828;54.122;17.974;2024-02-23T16:11:01;59.70;;;30.60;;
19384;SDS011;9828;54.122;17.974;2024-02-23T16:16:23;70.43;;;33.83;;
19384;SDS011;9828;54.122;17.974;2024-02-23T16:21:45;63.33;;;30.03;;
19384;SDS011;9828;54.122;17.974;2024-02-23T16:27:07;92.77;;;41.03;;
19384;SDS011;9828;54.122;17.974;2024-02-23T16:32:28;103.30;;;40.53;;
19384;SDS011;9828;54.122;17.974;2024-02-23T16:37:50;134.23;;;45.10;;
19384;SDS011;9828;54.122;17.974;2024-02-23T16:43:11;145.23;;;46.97;;
19384;SDS011;9828;54.122;17.974;2024-02-23T16:48:34;134.47;;;43.30;;
19384;SDS011;9828;54.122;17.974;2024-02-23T16:53:56;142.77;;;47.63;;
19384;SDS011;9828;54.122;17.974;2024-02-23T16:59:19;124.73;;;44.07;;
19384;SDS011;9828;54.122;17.974;2024-02-23T17:04:43;132.90;;;43.60;;
19384;SDS011;9828;54.122;17.974;2024-02-23T17:10:04;103.23;;;36.33;;
19384;SDS011;9828;54.122;17.974;2024-02-23T17:15:26;114.27;;;45.00;;
19384;SDS011;9828;54.122;17.974;2024-02-23T17:20:51;123.90;;;48.80;;
19384;SDS011;9828;54.122;17.974;2024-02-23T17:26:13;123.50;;;49.10;;
19384;SDS011;9828;54.122;17.974;2024-02-23T17:31:34;80.77;;;37.67;;
19384;SDS011;9828;54.122;17.974;2024-02-23T17:36:56;80.97;;;38.63;;
19384;SDS011;9828;54.122;17.974;2024-02-23T17:42:17;65.80;;;33.00;;
19384;SDS011;9828;54.122;17.974;2024-02-23T17:47:41;36.53;;;19.63;;
19384;SDS011;9828;54.122;17.974;2024-02-23T17:53:02;16.63;;;9.83;;
19384;SDS011;9828;54.122;17.974;2024-02-23T17:58:24;31.70;;;16.20;;
19384;SDS011;9828;54.122;17.974;2024-02-23T18:03:45;35.83;;;17.93;;
19384;SDS011;9828;54.122;17.974;2024-02-23T18:09:07;27.13;;;13.20;;
19384;SDS011;9828;54.122;17.974;2024-02-23T18:14:28;24.57;;;12.50;;
19384;SDS011;9828;54.122;17.974;2024-02-23T18:19:51;20.40;;;11.60;;
19384;SDS011;9828;54.122;17.974;2024-02-23T18:25:13;25.53;;;11.70;;
19384;SDS011;9828;54.122;17.974;2024-02-23T18:30:36;21.83;;;10.97;;
19384;SDS011;9828;54.122;17.974;2024-02-23T18:35:58;27.87;;;14.57;;
19384;SDS011;9828;54.122;17.974;2024-02-23T18:41:19;21.50;;;12.60;;
19384;SDS011;9828;54.122;17.974;2024-02-23T18:46:40;36.67;;;16.43;;
19384;SDS011;9828;54.122;17.974;2024-02-23T18:52:02;125.03;;;41.47;;
19384;SDS011;9828;54.122;17.974;2024-02-23T18:57:23;144.43;;;46.30;;
19384;SDS011;9828;54.122;17.974;2024-02-23T19:02:44;88.80;;;34.67;;
19384;SDS011;9828;54.122;17.974;2024-02-23T19:08:06;44.43;;;19.33;;
19384;SDS011;9828;54.122;17.974;2024-02-23T19:13:27;28.33;;;12.70;;
19384;SDS011;9828;54.122;17.974;2024-02-23T19:18:49;31.07;;;11.60;;
19384;SDS011;9828;54.122;17.974;2024-02-23T19:24:10;25.27;;;12.03;;
19384;SDS011;9828;54.122;17.974;2024-02-23T19:29:31;23.17;;;13.10;;
19384;SDS011;9828;54.122;17.974;2024-02-23T19:34:55;24.87;;;13.30;;
19384;SDS011;9828;54.122;17.974;2024-02-23T19:40:17;23.77;;;12.17;;
19384;SDS011;9828;54.122;17.974;2024-02-23T19:45:45;19.07;;;10.47;;
19384;SDS011;9828;54.122;17.974;2024-02-23T19:51:10;17.07;;;9.13;;
19384;SDS011;9828;54.122;17.974;2024-02-23T19:56:34;13.80;;;7.13;;
19384;SDS011;9828;54.122;17.974;2024-02-23T20:01:55;12.87;;;7.23;;
19384;SDS011;9828;54.122;17.974;2024-02-23T20:07:16;17.50;;;8.93;;
19384;SDS011;9828;54.122;17.974;2024-02-23T20:12:39;11.87;;;6.93;;
19384;SDS011;9828;54.122;17.974;2024-02-23T20:18:00;12.60;;;7.30;;
19384;SDS011;9828;54.122;17.974;2024-02-23T20:23:24;13.43;;;7.57;;
19384;SDS011;9828;54.122;17.974;2024-02-23T20:28:45;15.07;;;8.70;;
19384;SDS011;9828;54.122;17.974;2024-02-23T20:34:06;21.20;;;12.90;;
19384;SDS011;9828;54.122;17.974;2024-02-23T20:39:29;30.63;;;15.07;;
19384;SDS011;9828;54.122;17.974;2024-02-23T20:44:50;24.57;;;15.03;;
19384;SDS011;9828;54.122;17.974;2024-02-23T20:50:11;37.53;;;19.03;;
19384;SDS011;9828;54.122;17.974;2024-02-23T20:55:33;42.00;;;20.13;;
19384;SDS011;9828;54.122;17.974;2024-02-23T21:00:54;40.53;;;19.27;;
19384;SDS011;9828;54.122;17.974;2024-02-23T21:06:16;46.37;;;19.17;;
19384;SDS011;9828;54.122;17.974;2024-02-23T21:11:39;40.17;;;20.33;;
19384;SDS011;9828;54.122;17.974;2024-02-23T21:17:00;33.63;;;16.00;;
19384;SDS011;9828;54.122;17.974;2024-02-23T21:22:23;24.07;;;12.97;;
19384;SDS011;9828;54.122;17.974;2024-02-23T21:27:45;27.03;;;14.93;;
19384;SDS011;9828;54.122;17.974;2024-02-23T21:33:07;26.53;;;15.50;;
19384;SDS011;9828;54.122;17.974;2024-02-23T21:38:29;26.90;;;15.80;;
19384;SDS011;9828;54.122;17.974;2024-02-23T21:43:50;33.30;;;17.57;;
19384;SDS011;9828;54.122;17.974;2024-02-23T21:49:12;27.83;;;17.03;;
19384;SDS011;9828;54.122;17.974;2024-02-23T21:54:33;32.20;;;17.90;;
19384;SDS011;9828;54.122;17.974;2024-02-23T21:59:55;32.27;;;18.03;;
19384;SDS011;9828;54.122;17.974;2024-02-23T22:05:19;34.37;;;17.90;;
19384;SDS011;9828;54.122;17.974;2024-02-23T22:10:40;34.53;;;18.83;;
19384;SDS011;9828;54.122;17.974;2024-02-23T22:16:02;29.83;;;15.87;;
19384;SDS011;9828;54.122;17.974;2024-02-23T22:21:24;25.53;;;13.83;;
19384;SDS011;9828;54.122;17.974;2024-02-23T22:26:45;25.77;;;14.30;;
19384;SDS011;9828;54.122;17.974;2024-02-23T22:32:06;26.37;;;15.07;;
19384;SDS011;9828;54.122;17.974;2024-02-23T22:37:27;29.53;;;14.40;;
19384;SDS011;9828;54.122;17.974;2024-02-23T22:42:48;23.17;;;12.93;;
19384;SDS011;9828;54.122;17.974;2024-02-23T22:48:10;24.23;;;13.50;;
19384;SDS011;9828;54.122;17.974;2024-02-23T22:53:35;26.20;;;14.23;;
19384;SDS011;9828;54.122;17.974;2024-02-23T22:58:56;25.50;;;14.83;;
19384;SDS011;9828;54.122;17.974;2024-02-23T23:04:17;24.30;;;13.73;;
19384;SDS011;9828;54.122;17.974;2024-02-23T23:09:39;25.10;;;15.63;;
19384;SDS011;9828;54.122;17.974;2024-02-23T23:15:00;27.70;;;15.03;;
19384;SDS011;9828;54.122;17.974;2024-02-23T23:20:21;26.40;;;14.20;;
19384;SDS011;9828;54.122;17.974;2024-02-23T23:25:43;22.13;;;11.00;;
19384;SDS011;9828;54.122;17.974;2024-02-23T23:31:04;16.70;;;9.80;;
19384;SDS011;9828;54.122;17.974;2024-02-23T23:36:26;17.37;;;9.00;;
19384;SDS011;9828;54.122;17.974;2024-02-23T23:41:47;18.57;;;9.43;;
19384;SDS011;9828;54.122;17.974;2024-02-23T23:47:09;14.97;;;8.60;;
19384;SDS011;9828;54.122;17.974;2024-02-23T23:52:31;19.97;;;9.23;;
19384;SDS011;9828;54.122;17.974;2024-02-23T23:57:54;17.07;;;9.07;;
